sensor_id;sensor_type;location;lat;lon;timestamp;temperature;humidity
12843;DHT22;35724;49.324;-123.118;2022-09-17T00:04:20;33.10;44.00
12843;DHT22;35724;49.324;-123.118;2022-09-17T00:14:28;31.40;45.90
12843;DHT22;35724;49.324;-123.118;2022-09-17T00:24:35;30.60;47.10
12843;DHT22;35724;49.324;-123.118;2022-09-17T00:34:47;30.30;47.20
12843;DHT22;35724;49.324;-123.118;2022-09-17T00:44:57;27.30;52.30
12843;DHT22;35724;49.324;-123.118;2022-09-17T00:55:15;26.80;53.40
12843;DHT22;35724;49.324;-123.118;2022-09-17T01:05:29;26.60;53.40
12843;DHT22;35724;49.324;-123.118;2022-09-17T01:15:46;25.70;55.30
12843;DHT22;35724;49.324;-123.118;2022-09-17T01:26:05;25.10;56.20
12843;DHT22;35724;49.324;-123.118;2022-09-17T01:36:32;24.30;58.20
12843;DHT22;35724;49.324;-123.118;2022-09-17T01:47:14;23.90;58.90
12843;DHT22;35724;49.324;-123.118;2022-09-17T01:59:08;23.70;58.70
12843;DHT22;35724;49.324;-123.118;2022-09-17T02:09:56;23.60;59.60
12843;DHT22;35724;49.324;-123.118;2022-09-17T02:20:34;23.40;59.70
12843;DHT22;35724;49.324;-123.118;2022-09-17T02:30:45;23.30;59.30
12843;DHT22;35724;49.324;-123.118;2022-09-17T02:41:00;23.30;59.70
12843;DHT22;35724;49.324;-123.118;2022-09-17T02:51:20;23.30;59.80
12843;DHT22;35724;49.324;-123.118;2022-09-17T03:01:39;23.20;59.40
12843;DHT22;35724;49.324;-123.118;2022-09-17T03:11:53;23.20;59.20
12843;DHT22;35724;49.324;-123.118;2022-09-17T03:22:06;23.10;59.40
12843;DHT22;35724;49.324;-123.118;2022-09-17T03:32:13;23.20;59.90
12843;DHT22;35724;49.324;-123.118;2022-09-17T03:42:23;23.30;59.50
12843;DHT22;35724;49.324;-123.118;2022-09-17T03:52:30;23.30;59.20
12843;DHT22;35724;49.324;-123.118;2022-09-17T04:02:39;23.40;59.00
12843;DHT22;35724;49.324;-123.118;2022-09-17T04:12:53;23.30;58.60
12843;DHT22;35724;49.324;-123.118;2022-09-17T04:24:22;23.40;58.70
12843;DHT22;35724;49.324;-123.118;2022-09-17T04:46:07;23.40;58.80
12843;DHT22;35724;49.324;-123.118;2022-09-17T05:09:06;23.50;59.00
12843;DHT22;35724;49.324;-123.118;2022-09-17T05:20:34;23.40;58.90
12843;DHT22;35724;49.324;-123.118;2022-09-17T05:30:34;23.40;59.10
12843;DHT22;35724;49.324;-123.118;2022-09-17T05:40:46;23.40;59.40
12843;DHT22;35724;49.324;-123.118;2022-09-17T05:51:13;23.50;59.50
12843;DHT22;35724;49.324;-123.118;2022-09-17T06:01:36;23.40;59.60
12843;DHT22;35724;49.324;-123.118;2022-09-17T14:08:53;20.10;71.90
12843;DHT22;35724;49.324;-123.118;2022-09-17T14:19:31;20.10;72.80
12843;DHT22;35724;49.324;-123.118;2022-09-17T14:40:45;21.40;67.80
12843;DHT22;35724;49.324;-123.118;2022-09-17T14:51:37;21.60;66.80
12843;DHT22;35724;49.324;-123.118;2022-09-17T15:13:49;22.00;65.20
12843;DHT22;35724;49.324;-123.118;2022-09-17T15:35:37;22.40;63.20
12843;DHT22;35724;49.324;-123.118;2022-09-17T15:45:49;22.50;63.20
12843;DHT22;35724;49.324;-123.118;2022-09-17T15:56:55;22.50;63.20
12843;DHT22;35724;49.324;-123.118;2022-09-17T16:07:32;22.60;62.90
12843;DHT22;35724;49.324;-123.118;2022-09-17T16:42:29;23.00;68.20
12843;DHT22;35724;49.324;-123.118;2022-09-17T16:52:39;23.20;69.50
12843;DHT22;35724;49.324;-123.118;2022-09-17T17:02:57;23.00;66.80
12843;DHT22;35724;49.324;-123.118;2022-09-17T17:13:28;22.80;65.70
12843;DHT22;35724;49.324;-123.118;2022-09-17T17:23:56;22.80;65.40
12843;DHT22;35724;49.324;-123.118;2022-09-17T17:35:18;22.70;64.70
12843;DHT22;35724;49.324;-123.118;2022-09-17T17:58:23;23.10;65.10
12843;DHT22;35724;49.324;-123.118;2022-09-17T18:09:01;23.30;64.10
12843;DHT22;35724;49.324;-123.118;2022-09-17T18:20:26;23.30;64.00
12843;DHT22;35724;49.324;-123.118;2022-09-17T18:31:12;23.30;63.70
12843;DHT22;35724;49.324;-123.118;2022-09-17T18:41:36;23.30;62.50
12843;DHT22;35724;49.324;-123.118;2022-09-17T18:51:55;23.10;59.60
12843;DHT22;35724;49.324;-123.118;2022-09-17T19:02:11;22.60;59.50
12843;DHT22;35724;49.324;-123.118;2022-09-17T19:12:18;22.40;61.40
12843;DHT22;35724;49.324;-123.118;2022-09-17T19:22:27;22.50;61.10
12843;DHT22;35724;49.324;-123.118;2022-09-17T19:32:35;22.30;60.50
12843;DHT22;35724;49.324;-123.118;2022-09-17T19:42:53;22.40;61.10
12843;DHT22;35724;49.324;-123.118;2022-09-17T19:53:01;22.20;62.90
12843;DHT22;35724;49.324;-123.118;2022-09-17T20:03:10;22.50;61.00
12843;DHT22;35724;49.324;-123.118;2022-09-17T20:13:19;22.30;58.90
12843;DHT22;35724;49.324;-123.118;2022-09-17T20:46:46;23.30;63.40
12843;DHT22;35724;49.324;-123.118;2022-09-17T20:57:53;23.80;63.20
12843;DHT22;35724;49.324;-123.118;2022-09-17T21:08:03;24.00;63.20
12843;DHT22;35724;49.324;-123.118;2022-09-17T21:18:20;24.00;64.10
12843;DHT22;35724;49.324;-123.118;2022-09-17T21:28:48;23.90;64.70
12843;DHT22;35724;49.324;-123.118;2022-09-17T22:12:24;24.50;65.00
12843;DHT22;35724;49.324;-123.118;2022-09-17T22:49:02;23.70;71.50
12843;DHT22;35724;49.324;-123.118;2022-09-17T22:59:16;24.40;68.90
12843;DHT22;35724;49.324;-123.118;2022-09-17T23:09:25;24.30;68.30
12843;DHT22;35724;49.324;-123.118;2022-09-17T23:19:36;24.30;67.90
12843;DHT22;35724;49.324;-123.118;2022-09-17T23:29:50;24.30;67.70
12843;DHT22;35724;49.324;-123.118;2022-09-17T23:40:19;24.40;68.00
12843;DHT22;35724;49.324;-123.118;2022-09-17T23:50:57;24.60;67.00
